Udall, Missouri
Current Conditions -  °F | °C
As of 3:43 AM on Saturday 20 Dec 2014 (Local Time) from KBPK Reporting Station
Haze Haze  
Wind Chill: 36°   Ceiling: 1500
Heat Index: 36°   Visibility: 4mi
Dew Point: 35°   Wind: 3mph
Humidity: 97%   Direction: 130°SE
Pressure: 30.2"   Gusts: NA
Location:  36.54°N, 92.26°W
Report Text: KBPK 200943Z AUTO 13003KT 4SM BR SCT005 OVC015 02/02 A3020 RMK AO2 RAE01 P0000 T00220017
Loading
Personal Weather Stations






























Interactive Weather Map New forecast layout! Learn more

10-Day Weather Forecast

Advertisements
Track Severe Weather on mobile